createdAt,value
2019-03-21T00:01:27.775Z,28.00
2019-03-21T00:04:00.307Z,28.73
2019-03-21T00:06:30.231Z,27.13
2019-03-21T00:09:00.201Z,30.67
2019-03-21T00:11:54.418Z,29.93
2019-03-21T00:14:28.841Z,27.10
2019-03-21T00:16:58.761Z,26.03
2019-03-21T00:19:28.688Z,28.37
2019-03-21T00:21:58.623Z,33.43
2019-03-21T00:24:28.987Z,29.13
2019-03-21T00:26:58.927Z,30.17
2019-03-21T00:29:28.925Z,32.13
2019-03-21T00:31:58.830Z,28.33
2019-03-21T00:34:28.871Z,26.23
2019-03-21T00:36:58.791Z,28.07
2019-03-21T00:39:32.820Z,27.73
2019-03-21T00:42:00.362Z,28.10
2019-03-21T00:44:30.286Z,29.13
2019-03-21T00:47:00.226Z,28.23
2019-03-21T00:49:30.141Z,27.43
2019-03-21T00:52:00.068Z,25.83
2019-03-21T00:54:29.996Z,28.80
2019-03-21T00:57:00.008Z,25.50
2019-03-21T00:59:29.954Z,27.23
2019-03-21T01:01:59.861Z,27.97
2019-03-21T01:04:32.673Z,29.10
2019-03-21T01:07:02.573Z,28.97
2019-03-21T01:09:32.481Z,25.13
2019-03-21T01:12:02.564Z,29.27
2019-03-21T01:14:32.496Z,25.50
2019-03-21T01:17:04.900Z,28.67
2019-03-21T01:19:35.245Z,28.77
2019-03-21T01:22:05.182Z,25.77
2019-03-21T01:24:35.070Z,27.43
2019-03-21T01:27:04.984Z,29.53
2019-03-21T01:29:34.933Z,27.83
2019-03-21T01:32:04.820Z,30.77
2019-03-21T01:34:34.719Z,29.37
2019-03-21T01:37:04.781Z,30.63
2019-03-21T01:39:34.755Z,25.23
2019-03-21T01:42:04.652Z,27.03
2019-03-21T01:44:41.061Z,26.90
2019-03-21T01:47:06.376Z,33.13
2019-03-21T01:49:36.271Z,27.20
2019-03-21T01:52:06.322Z,29.40
2019-03-21T01:54:36.223Z,26.57
2019-03-21T01:57:06.151Z,25.07
2019-03-21T01:59:36.064Z,32.40
2019-03-21T02:02:05.994Z,27.87
2019-03-21T02:04:35.929Z,28.17
2019-03-21T02:07:05.919Z,26.47
2019-03-21T02:09:35.813Z,26.33
2019-03-21T02:12:05.719Z,25.37
2019-03-21T02:14:35.636Z,23.23
2019-03-21T02:17:05.545Z,22.83
2019-03-21T02:19:35.458Z,26.57
2019-03-21T02:22:05.472Z,21.53
2019-03-21T02:24:35.396Z,21.97
2019-03-21T02:27:05.299Z,21.03
2019-03-21T02:29:35.232Z,21.80
2019-03-21T02:32:05.125Z,20.70
2019-03-21T02:34:35.039Z,20.67
2019-03-21T02:37:04.951Z,22.30
2019-03-21T02:39:34.872Z,22.60
2019-03-21T02:42:04.752Z,24.07
2019-03-21T02:44:34.755Z,22.77
2019-03-21T02:47:04.662Z,22.23
2019-03-21T02:49:34.565Z,22.67
2019-03-21T02:52:04.506Z,22.13
2019-03-21T02:54:34.407Z,21.47
2019-03-21T02:57:04.280Z,23.43
2019-03-21T02:59:34.186Z,22.50
2019-03-21T03:02:04.167Z,20.80
2019-03-21T03:04:34.062Z,24.13
2019-03-21T03:07:04.046Z,22.43
2019-03-21T03:09:34.576Z,22.67
2019-03-21T03:12:04.485Z,21.17
2019-03-21T03:14:34.423Z,17.80
2019-03-21T03:17:04.318Z,19.47
2019-03-21T03:19:34.190Z,19.83
2019-03-21T03:22:04.121Z,20.60
2019-03-21T03:24:35.191Z,18.93
2019-03-21T03:27:05.103Z,21.70
2019-03-21T03:29:34.981Z,18.73
2019-03-21T03:32:04.883Z,17.97
2019-03-21T03:34:34.836Z,24.20
2019-03-21T03:37:04.760Z,21.70
2019-03-21T03:39:37.055Z,20.50
2019-03-21T03:42:06.299Z,20.73
2019-03-21T03:44:36.166Z,19.93
2019-03-21T03:47:06.087Z,20.83
2019-03-21T03:49:35.994Z,22.80
2019-03-21T03:52:05.926Z,21.50
2019-03-21T03:54:36.296Z,17.83
2019-03-21T03:57:06.229Z,23.13
2019-03-21T03:59:36.128Z,24.70
2019-03-21T04:02:06.028Z,22.73
2019-03-21T04:04:35.978Z,20.93
2019-03-21T04:07:05.870Z,19.67
2019-03-21T04:09:35.741Z,21.43
2019-03-21T04:12:05.755Z,21.30
2019-03-21T04:14:35.659Z,24.73
2019-03-21T04:17:05.580Z,20.13
2019-03-21T04:19:35.511Z,21.60
2019-03-21T04:22:05.416Z,24.10
2019-03-21T04:24:35.350Z,20.60
2019-03-21T04:27:05.240Z,23.63
2019-03-21T04:29:35.129Z,19.90
2019-03-21T04:32:05.019Z,21.00
2019-03-21T04:34:34.919Z,19.57
2019-03-21T04:37:04.808Z,18.17
2019-03-21T04:39:34.774Z,22.97
2019-03-21T04:42:04.671Z,22.87
2019-03-21T04:44:34.571Z,19.43
2019-03-21T04:47:04.480Z,19.50
2019-03-21T04:49:34.414Z,21.43
2019-03-21T04:52:04.899Z,21.83
2019-03-21T04:54:34.854Z,21.40
2019-03-21T04:57:04.814Z,23.07
2019-03-21T04:59:34.693Z,21.43
2019-03-21T05:02:04.787Z,21.40
2019-03-21T05:04:34.719Z,23.87
2019-03-21T05:07:04.666Z,18.87
2019-03-21T05:09:34.569Z,19.93
2019-03-21T05:12:06.310Z,19.87
2019-03-21T05:14:36.278Z,22.67
2019-03-21T05:17:06.234Z,19.80
2019-03-21T05:19:36.158Z,24.03
2019-03-21T05:22:06.042Z,22.20
2019-03-21T05:24:35.970Z,22.80
2019-03-21T05:27:05.907Z,25.03
2019-03-21T05:29:35.874Z,22.87
2019-03-21T05:32:05.809Z,20.73
2019-03-21T05:34:35.781Z,22.23
2019-03-21T05:37:05.710Z,28.03
2019-03-21T05:39:35.620Z,19.13
2019-03-21T05:42:09.210Z,23.07
2019-03-21T05:44:42.237Z,19.47
2019-03-21T05:47:12.192Z,23.57
2019-03-21T05:49:42.115Z,26.57
2019-03-21T05:52:12.788Z,21.20
2019-03-21T05:54:42.761Z,24.03
2019-03-21T05:57:12.699Z,23.30
2019-03-21T05:59:42.633Z,25.20
2019-03-21T06:02:12.609Z,25.27
2019-03-21T06:04:42.568Z,28.27
2019-03-21T06:07:19.203Z,30.33
2019-03-21T06:09:49.158Z,28.13
2019-03-21T06:12:22.162Z,27.30
2019-03-21T06:14:55.769Z,23.90
2019-03-21T06:17:25.945Z,23.27
2019-03-21T06:20:15.759Z,21.47
2019-03-21T06:23:07.698Z,20.37
2019-03-21T06:26:08.789Z,27.33
2019-03-21T06:28:38.738Z,23.87
2019-03-21T06:31:08.675Z,31.20
2019-03-21T06:33:38.677Z,25.63
2019-03-21T06:36:08.580Z,25.77
2019-03-21T06:38:38.546Z,24.37
2019-03-21T06:41:08.546Z,25.53
2019-03-21T06:43:38.465Z,28.57
2019-03-21T06:46:08.365Z,32.47
2019-03-21T06:48:38.303Z,27.83
2019-03-21T06:51:08.243Z,21.53
2019-03-21T06:53:38.163Z,27.23
2019-03-21T06:56:08.079Z,26.43
2019-03-21T06:58:38.109Z,29.70
2019-03-21T07:01:08.199Z,28.17
2019-03-21T07:03:38.105Z,24.23
2019-03-21T07:06:08.020Z,31.83
2019-03-21T07:08:38.000Z,28.97
2019-03-21T07:11:08.073Z,30.17
2019-03-21T07:13:37.977Z,32.47
2019-03-21T07:16:09.418Z,38.37
2019-03-21T07:18:39.493Z,26.87
2019-03-21T07:21:09.468Z,27.30
2019-03-21T07:23:39.412Z,29.90
2019-03-21T07:26:09.348Z,31.27
2019-03-21T07:28:39.315Z,26.83
2019-03-21T07:31:11.295Z,29.07
2019-03-21T07:33:40.890Z,29.67
2019-03-21T07:36:10.829Z,27.03
2019-03-21T07:38:40.814Z,28.37
2019-03-21T07:41:11.294Z,27.57
2019-03-21T07:43:41.385Z,29.83
2019-03-21T07:46:16.182Z,30.30
2019-03-21T07:48:47.002Z,30.50
2019-03-21T07:51:16.917Z,30.90
2019-03-21T07:53:46.814Z,29.07
2019-03-21T07:56:16.788Z,27.77
2019-03-21T07:58:46.726Z,32.00
2019-03-21T08:01:16.677Z,33.57
2019-03-21T08:03:46.617Z,28.37
2019-03-21T08:06:16.967Z,32.83
2019-03-21T08:08:46.901Z,29.03
2019-03-21T08:11:16.826Z,26.77
2019-03-21T08:13:46.785Z,27.50
2019-03-21T08:16:16.760Z,30.00
2019-03-21T08:18:47.286Z,28.83
2019-03-21T08:21:17.232Z,30.50
2019-03-21T08:23:47.129Z,28.67
2019-03-21T08:26:17.081Z,29.70
2019-03-21T08:28:47.063Z,28.60
2019-03-21T08:31:21.283Z,33.53
2019-03-21T08:33:51.242Z,28.60
2019-03-21T08:36:21.209Z,28.10
2019-03-21T08:38:51.168Z,27.90
2019-03-21T08:41:21.192Z,31.97
2019-03-21T08:43:51.273Z,26.53
2019-03-21T08:46:21.294Z,25.60
2019-03-21T08:48:51.498Z,34.67
2019-03-21T08:51:21.492Z,30.80
2019-03-21T08:53:51.415Z,38.20
2019-03-21T08:56:21.300Z,26.17
2019-03-21T08:58:51.249Z,27.87
2019-03-21T09:01:21.165Z,27.63
2019-03-21T09:03:51.119Z,26.40
2019-03-21T09:06:21.082Z,27.37
2019-03-21T09:08:50.979Z,27.13
2019-03-21T09:11:20.896Z,29.23
2019-03-21T09:13:50.847Z,28.07
2019-03-21T09:16:20.794Z,30.10
2019-03-21T09:18:50.762Z,25.37
2019-03-21T09:21:20.723Z,28.97
2019-03-21T09:23:50.689Z,28.53
2019-03-21T09:26:20.648Z,31.23
2019-03-21T09:28:50.777Z,26.37
2019-03-21T09:31:20.722Z,31.00
2019-03-21T09:33:50.663Z,31.60
2019-03-21T09:36:20.582Z,52.03
2019-03-21T09:38:50.487Z,33.83
2019-03-21T09:41:20.443Z,33.70
2019-03-21T09:43:50.358Z,30.50
2019-03-21T09:46:20.508Z,29.93
2019-03-21T09:48:50.466Z,32.50
2019-03-21T09:51:30.463Z,35.17
2019-03-21T09:53:52.157Z,31.23
2019-03-21T09:56:24.106Z,30.03
2019-03-21T09:58:53.753Z,30.20
2019-03-21T10:01:23.705Z,25.80
2019-03-21T10:03:53.630Z,27.40
2019-03-21T10:06:23.574Z,26.83
2019-03-21T10:08:53.469Z,24.37
2019-03-21T10:11:23.379Z,26.13
2019-03-21T10:13:53.322Z,22.23
2019-03-21T10:16:23.523Z,21.57
2019-03-21T10:18:53.453Z,25.27
2019-03-21T10:21:23.400Z,22.90
2019-03-21T10:23:53.295Z,20.70
2019-03-21T10:26:23.216Z,21.07
2019-03-21T10:28:53.135Z,21.60
2019-03-21T10:31:23.071Z,22.17
2019-03-21T10:33:53.001Z,25.20
2019-03-21T10:36:22.954Z,19.50
2019-03-21T10:38:54.923Z,19.37
2019-03-21T10:41:24.885Z,19.53
2019-03-21T10:43:54.805Z,22.40
2019-03-21T10:46:24.776Z,25.10
2019-03-21T10:48:54.680Z,22.27
2019-03-21T10:51:24.594Z,26.30
2019-03-21T10:53:55.376Z,28.03
2019-03-21T10:56:25.294Z,30.17
2019-03-21T10:58:55.237Z,27.63
2019-03-21T11:01:25.210Z,23.73
2019-03-21T11:03:55.187Z,24.10
2019-03-21T11:06:25.102Z,25.63
2019-03-21T11:08:55.038Z,21.53
2019-03-21T11:11:24.983Z,22.90
2019-03-21T11:13:55.183Z,23.83
2019-03-21T11:16:25.303Z,22.80
2019-03-21T11:18:56.194Z,25.30
2019-03-21T11:21:26.184Z,23.93
2019-03-21T11:23:56.105Z,26.13
2019-03-21T11:26:26.049Z,25.47
2019-03-21T11:28:55.978Z,30.17
2019-03-21T11:31:26.806Z,25.77
2019-03-21T11:33:56.717Z,29.53
2019-03-21T11:36:33.779Z,24.67
2019-03-21T11:38:58.261Z,25.70
2019-03-21T11:41:28.313Z,27.83
2019-03-21T11:43:58.244Z,26.47
2019-03-21T11:46:28.797Z,25.20
2019-03-21T11:48:59.736Z,22.47
2019-03-21T11:51:29.649Z,22.87
2019-03-21T11:53:59.748Z,25.43
2019-03-21T11:56:30.716Z,30.77
2019-03-21T11:59:00.627Z,22.03
2019-03-21T12:01:30.599Z,23.52
2019-03-21T12:04:00.510Z,24.82
2019-03-21T12:06:30.449Z,23.37
2019-03-21T12:09:00.383Z,24.90
2019-03-21T12:11:30.767Z,24.20
2019-03-21T12:14:00.681Z,21.62
2019-03-21T12:16:30.596Z,21.17
2019-03-21T12:19:00.628Z,23.97
2019-03-21T12:21:31.010Z,18.43
2019-03-21T12:24:00.947Z,23.13
2019-03-21T12:26:31.252Z,17.67
2019-03-21T12:29:01.182Z,19.32
2019-03-21T12:31:31.094Z,19.87
2019-03-21T12:34:00.985Z,20.37
2019-03-21T12:36:30.937Z,18.73
2019-03-21T12:39:00.864Z,19.87
2019-03-21T12:41:30.775Z,17.77
2019-03-21T12:44:00.675Z,18.90
2019-03-21T12:46:30.595Z,21.50
2019-03-21T12:49:00.938Z,19.80
2019-03-21T12:51:30.879Z,22.13
2019-03-21T12:54:00.789Z,19.30
2019-03-21T12:56:30.695Z,19.67
2019-03-21T12:59:00.649Z,18.80
2019-03-21T13:01:30.568Z,17.10
2019-03-21T13:04:00.522Z,17.13
2019-03-21T13:06:30.451Z,17.03
2019-03-21T13:09:00.366Z,16.47
2019-03-21T13:11:30.294Z,16.93
2019-03-21T13:14:00.203Z,17.27
2019-03-21T13:16:31.101Z,17.73
2019-03-21T13:19:01.017Z,23.27
2019-03-21T13:21:30.957Z,19.37
2019-03-21T13:24:00.860Z,20.90
2019-03-21T13:26:30.747Z,17.70
2019-03-21T13:29:00.667Z,15.37
2019-03-21T13:31:30.618Z,21.23
2019-03-21T13:34:00.580Z,15.40
2019-03-21T13:36:30.519Z,16.57
2019-03-21T13:39:00.437Z,16.20
2019-03-21T13:41:30.351Z,18.53
2019-03-21T13:44:00.285Z,14.63
2019-03-21T13:46:30.210Z,16.37
2019-03-21T13:49:00.142Z,20.23
2019-03-21T13:51:30.544Z,16.40
2019-03-21T13:54:00.499Z,13.73
2019-03-21T13:56:37.963Z,18.30
2019-03-21T13:59:02.111Z,15.17
2019-03-21T14:01:32.068Z,18.67
2019-03-21T14:04:02.129Z,14.63
2019-03-21T14:06:31.992Z,13.37
2019-03-21T14:09:02.156Z,16.90
2019-03-21T14:11:32.091Z,14.10
2019-03-21T14:14:02.032Z,16.00
2019-03-21T14:16:31.951Z,17.67
2019-03-21T14:19:02.345Z,17.83
2019-03-21T14:21:32.251Z,20.17
2019-03-21T14:24:02.199Z,17.90
2019-03-21T14:26:32.120Z,14.70
2019-03-21T14:29:12.286Z,18.80
2019-03-21T14:31:33.642Z,22.60
2019-03-21T14:34:03.546Z,20.30
2019-03-21T14:36:33.491Z,15.57
2019-03-21T14:39:04.471Z,19.07
2019-03-21T14:41:34.397Z,16.70
2019-03-21T14:44:06.984Z,17.33
2019-03-21T14:46:36.183Z,19.60
2019-03-21T14:49:06.130Z,17.37
2019-03-21T14:51:36.069Z,16.73
2019-03-21T14:54:05.965Z,15.80
2019-03-21T14:56:35.941Z,21.47
2019-03-21T14:59:05.876Z,20.80
2019-03-21T15:01:35.851Z,15.47
2019-03-21T15:04:05.894Z,20.93
2019-03-21T15:06:35.785Z,17.30
2019-03-21T15:09:07.338Z,19.80
2019-03-21T15:11:37.418Z,20.20
2019-03-21T15:14:07.368Z,18.57
2019-03-21T15:16:37.279Z,18.13
2019-03-21T15:19:07.223Z,17.83
2019-03-21T15:21:37.150Z,18.97
2019-03-21T15:24:07.110Z,18.73
2019-03-21T15:26:37.010Z,17.87
2019-03-21T15:29:06.937Z,18.00
2019-03-21T15:31:36.866Z,17.83
2019-03-21T15:34:08.092Z,18.63
2019-03-21T15:36:38.003Z,15.83
2019-03-21T15:39:09.139Z,19.37
2019-03-21T15:41:39.455Z,17.17
2019-03-21T15:44:09.372Z,21.20
2019-03-21T15:46:40.271Z,17.60
2019-03-21T15:49:10.201Z,17.57
2019-03-21T15:51:40.134Z,21.27
2019-03-21T15:54:10.046Z,16.83
2019-03-21T15:56:39.954Z,19.83
2019-03-21T15:59:09.904Z,19.10
2019-03-21T16:01:39.823Z,20.10
2019-03-21T16:04:09.715Z,20.40
2019-03-21T16:06:39.600Z,17.90
2019-03-21T16:09:09.490Z,19.07
2019-03-21T16:11:39.398Z,18.00
2019-03-21T16:14:09.297Z,21.97
2019-03-21T16:16:39.216Z,16.80
2019-03-21T16:19:09.126Z,18.63
2019-03-21T16:21:39.029Z,19.20
2019-03-21T16:24:08.984Z,18.60
2019-03-21T16:26:38.883Z,16.97
2019-03-21T16:29:10.153Z,21.23
2019-03-21T16:31:40.276Z,19.13
2019-03-21T16:34:10.230Z,16.10
2019-03-21T16:36:40.606Z,17.33
2019-03-21T16:39:10.621Z,19.00
2019-03-21T16:41:40.524Z,19.67
2019-03-21T16:44:11.602Z,17.90
2019-03-21T16:46:41.564Z,16.57
2019-03-21T16:49:12.100Z,23.17
2019-03-21T16:51:42.515Z,17.23
2019-03-21T16:54:17.441Z,19.57
2019-03-21T16:56:45.989Z,19.10
2019-03-21T16:59:24.533Z,19.43
2019-03-21T17:01:55.614Z,19.20
2019-03-21T17:04:25.557Z,16.67
2019-03-21T17:06:55.517Z,20.47
2019-03-21T17:09:25.419Z,22.47
2019-03-21T17:11:55.349Z,19.20
2019-03-21T17:14:25.270Z,22.50
2019-03-21T17:16:55.262Z,25.70
2019-03-21T17:19:25.807Z,24.37
2019-03-21T17:21:55.847Z,21.53
2019-03-21T17:24:29.666Z,25.00
2019-03-21T17:26:57.864Z,27.40
2019-03-21T17:29:27.823Z,22.13
2019-03-21T17:31:57.747Z,23.70
2019-03-21T17:34:27.675Z,27.93
2019-03-21T17:36:59.691Z,19.80
2019-03-21T17:39:29.601Z,22.27
2019-03-21T17:41:59.508Z,23.57
2019-03-21T17:44:29.404Z,22.67
2019-03-21T17:46:59.314Z,26.10
2019-03-21T17:49:34.109Z,21.57
2019-03-21T17:52:06.410Z,23.33
2019-03-21T17:54:41.488Z,22.23
2019-03-21T17:57:08.017Z,22.87
2019-03-21T17:59:37.972Z,23.13
2019-03-21T18:02:08.082Z,26.27
2019-03-21T18:04:38.444Z,32.03
2019-03-21T18:07:08.585Z,29.53
2019-03-21T18:09:38.517Z,33.93
2019-03-21T18:12:08.448Z,34.73
2019-03-21T18:14:38.467Z,33.03
2019-03-21T18:17:08.391Z,38.33
2019-03-21T18:19:38.473Z,36.37
2019-03-21T18:22:08.450Z,35.63
2019-03-21T18:24:38.384Z,32.10
2019-03-21T18:27:08.318Z,34.33
2019-03-21T18:29:38.411Z,32.30
2019-03-21T18:32:10.627Z,30.73
2019-03-21T18:34:40.956Z,35.40
2019-03-21T18:37:33.519Z,38.37
2019-03-21T18:40:03.769Z,43.03
2019-03-21T18:42:41.666Z,38.63
2019-03-21T18:45:12.360Z,36.33
2019-03-21T18:47:42.496Z,36.33
2019-03-21T18:50:12.728Z,32.40
2019-03-21T18:52:42.702Z,39.37
2019-03-21T18:55:12.635Z,38.90
2019-03-21T18:57:42.587Z,41.87
2019-03-21T19:00:13.421Z,37.33
2019-03-21T19:02:43.386Z,37.50
2019-03-21T19:05:13.821Z,31.87
2019-03-21T19:07:43.793Z,35.03
2019-03-21T19:10:13.987Z,30.80
2019-03-21T19:12:44.008Z,34.73
2019-03-21T19:15:14.143Z,34.77
2019-03-21T19:17:44.150Z,35.60
2019-03-21T19:20:14.750Z,34.87
2019-03-21T19:22:44.732Z,38.93
2019-03-21T19:25:19.118Z,38.07
2019-03-21T19:27:47.759Z,40.30
2019-03-21T19:30:17.950Z,31.40
2019-03-21T19:32:47.840Z,34.40
2019-03-21T19:35:17.931Z,35.43
2019-03-21T19:37:47.854Z,40.13
2019-03-21T19:40:17.802Z,47.53
2019-03-21T19:42:47.733Z,40.20
2019-03-21T19:45:18.069Z,35.33
2019-03-21T19:47:47.984Z,35.33
2019-03-21T19:50:18.582Z,38.73
2019-03-21T19:52:48.523Z,32.63
2019-03-21T19:55:25.859Z,34.90
2019-03-21T19:57:50.139Z,30.00
2019-03-21T20:00:20.768Z,26.33
2019-03-21T20:02:50.759Z,27.43
2019-03-21T20:05:20.995Z,30.47
2019-03-21T20:07:51.527Z,29.70
2019-03-21T20:10:21.717Z,28.57
2019-03-21T20:12:51.639Z,29.83
2019-03-21T20:15:21.753Z,29.10
2019-03-21T20:17:51.662Z,27.50
2019-03-21T20:20:21.714Z,26.97
2019-03-21T20:22:51.755Z,24.27
2019-03-21T20:25:22.777Z,25.80
2019-03-21T20:27:52.648Z,21.73
2019-03-21T20:30:22.760Z,24.10
2019-03-21T20:32:52.649Z,24.10
2019-03-21T20:35:23.874Z,21.67
2019-03-21T20:37:53.675Z,23.90
2019-03-21T20:40:23.600Z,28.23
2019-03-21T20:42:53.636Z,24.03
2019-03-21T20:45:23.813Z,25.30
2019-03-21T20:47:53.953Z,23.73
2019-03-21T20:50:24.043Z,28.43
2019-03-21T20:52:54.103Z,23.27
2019-03-21T20:55:25.018Z,22.57
2019-03-21T20:57:54.951Z,21.30
2019-03-21T21:00:25.170Z,23.87
2019-03-21T21:02:55.902Z,22.50
2019-03-21T21:05:25.825Z,26.27
2019-03-21T21:07:57.571Z,26.13
2019-03-21T21:10:27.545Z,25.27
2019-03-21T21:12:57.608Z,28.87
2019-03-21T21:15:27.973Z,25.20
2019-03-21T21:17:57.921Z,26.83
2019-03-21T21:20:27.841Z,28.63
2019-03-21T21:22:57.787Z,26.70
2019-03-21T21:25:27.802Z,28.83
2019-03-21T21:27:57.725Z,29.83
2019-03-21T21:30:27.621Z,27.70
2019-03-21T21:32:57.593Z,29.73
2019-03-21T21:35:27.521Z,26.00
2019-03-21T21:37:57.540Z,29.20
2019-03-21T21:40:27.593Z,30.53
2019-03-21T21:42:57.628Z,27.07
2019-03-21T21:45:27.698Z,26.77
2019-03-21T21:48:00.083Z,25.27
2019-03-21T21:50:30.080Z,27.83
2019-03-21T21:53:00.016Z,28.03
2019-03-21T21:55:29.954Z,26.57
2019-03-21T21:57:59.938Z,28.70
2019-03-21T22:00:29.867Z,26.03
2019-03-21T22:02:59.895Z,25.03
2019-03-21T22:05:29.943Z,30.63
2019-03-21T22:07:59.880Z,36.07
2019-03-21T22:10:30.778Z,39.00
2019-03-21T22:13:00.694Z,34.43
2019-03-21T22:15:30.623Z,31.57
2019-03-21T22:18:00.542Z,31.73
2019-03-21T22:20:30.504Z,35.40
2019-03-21T22:23:00.562Z,33.80
2019-03-21T22:25:30.487Z,28.37
2019-03-21T22:28:00.475Z,26.80
2019-03-21T22:30:30.395Z,28.53
2019-03-21T22:33:00.320Z,30.13
2019-03-21T22:35:30.264Z,24.87
2019-03-21T22:38:00.256Z,29.20
2019-03-21T22:40:30.162Z,28.13
2019-03-21T22:43:00.074Z,27.13
2019-03-21T22:45:30.019Z,27.73
2019-03-21T22:47:59.946Z,29.63
2019-03-21T22:50:29.855Z,30.67
2019-03-21T22:52:59.826Z,31.07
2019-03-21T22:55:31.707Z,28.70
2019-03-21T22:58:01.715Z,27.03
2019-03-21T23:00:41.817Z,30.83
2019-03-21T23:03:11.834Z,34.43
2019-03-21T23:05:41.744Z,28.63
2019-03-21T23:08:11.753Z,24.83
2019-03-21T23:10:41.701Z,28.77
2019-03-21T23:13:11.593Z,33.03
2019-03-21T23:15:41.512Z,27.17
2019-03-21T23:18:11.399Z,22.83
2019-03-21T23:20:41.356Z,24.07
2019-03-21T23:23:11.308Z,25.10
2019-03-21T23:25:41.242Z,25.33
2019-03-21T23:28:11.303Z,27.03
2019-03-21T23:30:41.252Z,24.70
2019-03-21T23:33:11.229Z,25.20
2019-03-21T23:35:41.149Z,30.37
2019-03-21T23:38:11.213Z,28.60
2019-03-21T23:40:41.110Z,24.97
2019-03-21T23:43:11.042Z,28.73
2019-03-21T23:45:40.958Z,28.03
2019-03-21T23:48:10.899Z,28.77
2019-03-21T23:50:40.794Z,26.60
2019-03-21T23:53:11.096Z,26.60
2019-03-21T23:55:40.973Z,24.97
2019-03-21T23:58:11.024Z,26.43
